Terminal Aerodrome Forecast
Issued by NWS

Home | Current Version | Previous Version | Text Only | Print | Product List | Glossary On
Versions: 1 2 3 4 5 6 7 8 9 10 11 12 13 14 15 16 17 18 19 20 21 22 23 24 25 26 27 28 29 30
000
FTAK31 PAFA 231745 CCA
TAFABT
TAF COR
PABT 231745Z 2318/2418 17010KT P6SM SCT050 BKN120 OVC150
     FM232100 21012G18KT P6SM -SHRA SCT035 BKN050 OVC100
     FM240300 21015G25KT 6SM -RA BR SCT025 BKN035 OVC050
     FM240600 16012G18KT 6SM -RA BR BKN015 OVC025=

USA.gov is the U.S. government's official web portal to all federal, state and local government web resources and services.